Richland, IL

4:02 AM CST on February 12, 2016 (GMT -0600)
Hill House | | Change Station
CLOSE
Current Station
Personal Weather Station
Location: Tallula, IL
Elevation: 643 ft
Nearby Weather Stations

Elev 643 ft 39.92 °N, 89.99 °W | Updated 14 minutes ago

Overcast
Overcast
20.1 °F
Feels Like 14 °F
N
4.0
Wind Variable Wind from WSW
Gusts 4.0 mph

Today
High -- | Low -- °F
--% Chance of Precip.
Yesterday
High -- | Low -- °F
Precip. -- in
Pressure 30.24 in
Visibility 5.0 miles
Clouds Overcast 4500 ft
Windchill 14 °F
Dew Point 18 °F
Humidity 93%
Rainfall 0.00 in
Snow Depth Not available.
6:56 AM 5:31 PM
Waxing Crescent, 19% visible
METAR KSPI 120952Z AUTO 26003KT 5SM -SN BR OVC045 M06/M07 A3022 RMK AO2 SLP240 P0001 T10561067
Pressure 30.24 in
Visibility 5.0 miles
Clouds Overcast 4500 ft
Windchill 14 °F
Dew Point 18 °F
Humidity 93%
Rainfall 0.00 in
Snow Depth Not available.
6:56 AM 5:31 PM
Waxing Crescent, 19% visible
METAR KSPI 120952Z AUTO 26003KT 5SM -SN BR OVC045 M06/M07 A3022 RMK AO2 SLP240 P0001 T10561067

10-Day Weather Forecast

Almanac

Astronomy

Feb. 12, 2016 Rise Set
Actual Time
Civil Twilight
Nautical Twilight
Astronomical Twilight
Moon
Length of Visible Light
Length of Day
Tomorrow will be .
, % of the Moon is Illuminated

Today's Extremes

State Highs State Lows

Community

WunderPhotos

Upload Photos

1,892,287 photos uploaded!

WunderBlog® & News

Nearby

Air Quality

  Air Quality AQ Index Pollutant
Not available.

Snow Depth

Station Depth Elevation

Earthquake Activity

City Distance Mag. Time & Date
Minimum magnitude displayed is 2.5.

Coastal Water Temperatures

Place Temperature

Stations

Nearby Weather Stations

Station Location Temp. Windchill Dew Point Humidity Wind Precip. Elev Updated Type
                   

Watches & Warnings

There are currently no watches in effect.